createdAt,value
2022-07-30T00:01:24.155Z,25.60
2022-07-30T00:03:54.077Z,25.70
2022-07-30T00:06:23.947Z,25.70
2022-07-30T00:08:53.989Z,25.70
2022-07-30T00:11:27.688Z,25.70
2022-07-30T00:13:59.186Z,25.70
2022-07-30T00:16:29.476Z,25.80
2022-07-30T00:18:59.649Z,25.80
2022-07-30T00:21:36.527Z,25.80
2022-07-30T00:24:10.632Z,25.90
2022-07-30T00:26:40.778Z,25.80
2022-07-30T00:29:11.204Z,25.90
2022-07-30T00:31:41.336Z,25.90
2022-07-30T00:34:11.359Z,25.90
2022-07-30T00:36:42.313Z,25.90
2022-07-30T00:39:12.581Z,26.00
2022-07-30T00:42:03.308Z,26.00
2022-07-30T00:44:34.013Z,26.00
2022-07-30T00:47:04.710Z,26.00
2022-07-30T00:49:34.725Z,26.10
2022-07-30T00:52:04.607Z,26.00
2022-07-30T00:54:34.836Z,26.10
2022-07-30T00:57:07.679Z,26.10
2022-07-30T00:59:38.746Z,26.20
2022-07-30T01:02:08.501Z,26.20
2022-07-30T01:04:38.254Z,26.30
2022-07-30T01:07:08.093Z,26.30
2022-07-30T01:09:37.836Z,26.30
2022-07-30T01:12:08.779Z,26.40
2022-07-30T01:14:39.580Z,26.40
2022-07-30T01:17:09.328Z,26.50
2022-07-30T01:19:50.404Z,26.50
2022-07-30T01:22:44.595Z,26.50
2022-07-30T01:25:39.890Z,26.60
2022-07-30T01:28:14.669Z,26.60
2022-07-30T01:30:50.207Z,26.70
2022-07-30T01:33:23.787Z,26.70
2022-07-30T01:35:54.638Z,26.70
2022-07-30T01:38:26.308Z,26.70
2022-07-30T01:40:57.699Z,26.80
2022-07-30T01:43:29.231Z,26.80
2022-07-30T01:46:00.162Z,26.90
2022-07-30T01:48:31.353Z,26.90
2022-07-30T01:51:06.046Z,26.90
2022-07-30T01:53:40.709Z,27.00
2022-07-30T01:56:13.885Z,27.10
2022-07-30T01:58:48.736Z,27.10
2022-07-30T02:01:18.788Z,27.10
2022-07-30T02:03:48.530Z,27.20
2022-07-30T02:06:25.366Z,27.20
2022-07-30T02:09:01.419Z,27.30
2022-07-30T02:11:50.815Z,27.40
2022-07-30T02:14:32.223Z,27.50
2022-07-30T02:17:04.178Z,27.60
2022-07-30T02:19:45.534Z,27.70
2022-07-30T02:22:20.526Z,27.70
2022-07-30T02:24:55.404Z,27.80
2022-07-30T02:27:32.956Z,27.80
2022-07-30T02:30:05.414Z,27.90
2022-07-30T02:32:39.580Z,27.90
2022-07-30T02:35:16.628Z,28.00
2022-07-30T02:37:50.258Z,28.00
2022-07-30T02:40:23.449Z,28.10
2022-07-30T02:42:55.076Z,28.10
2022-07-30T02:45:27.557Z,28.10
2022-07-30T02:48:11.422Z,28.20
2022-07-30T02:51:04.903Z,28.20
2022-07-30T02:53:36.636Z,28.30
2022-07-30T02:56:07.869Z,28.30
2022-07-30T02:58:40.874Z,28.40
2022-07-30T03:01:13.435Z,28.50
2022-07-30T03:03:45.775Z,28.60
2022-07-30T03:06:17.590Z,28.70
2022-07-30T03:08:48.540Z,28.70
2022-07-30T03:11:23.064Z,28.80
2022-07-30T03:13:53.367Z,28.80
2022-07-30T03:16:27.467Z,28.90
2022-07-30T03:19:05.718Z,29.00
2022-07-30T03:21:36.872Z,29.00
2022-07-30T03:24:08.957Z,29.00
2022-07-30T03:26:40.103Z,29.00
2022-07-30T03:29:11.366Z,29.10
2022-07-30T03:31:43.094Z,29.20
2022-07-30T03:34:15.175Z,29.20
2022-07-30T03:36:46.365Z,29.20
2022-07-30T03:39:17.147Z,29.20
2022-07-30T03:41:48.571Z,29.30
2022-07-30T03:44:20.278Z,29.30
2022-07-30T03:46:54.576Z,29.40
2022-07-30T03:49:26.390Z,29.40
2022-07-30T03:51:56.795Z,29.50
2022-07-30T03:54:27.084Z,29.50
2022-07-30T03:56:57.217Z,29.50
2022-07-30T03:59:27.021Z,29.50
2022-07-30T04:01:57.314Z,29.70
2022-07-30T04:04:35.766Z,29.70
2022-07-30T04:09:27.907Z,29.80
2022-07-30T04:11:57.728Z,29.80
2022-07-30T04:14:28.205Z,29.90
2022-07-30T04:17:04.888Z,29.90
2022-07-30T04:19:42.083Z,29.90
2022-07-30T04:22:14.311Z,30.00
2022-07-30T04:24:46.761Z,30.10
2022-07-30T04:27:18.134Z,30.10
2022-07-30T04:29:49.039Z,30.20
2022-07-30T04:32:19.486Z,30.30
2022-07-30T04:34:52.502Z,30.20
2022-07-30T04:37:25.600Z,30.30
2022-07-30T04:39:57.075Z,30.30
2022-07-30T04:42:28.863Z,30.40
2022-07-30T04:44:59.714Z,30.40
2022-07-30T04:47:29.686Z,30.40
2022-07-30T04:50:00.265Z,30.40
2022-07-30T04:52:30.938Z,30.40
2022-07-30T04:55:07.484Z,30.50
2022-07-30T04:57:39.756Z,30.50
2022-07-30T05:00:11.150Z,30.60
2022-07-30T05:02:44.213Z,30.60
2022-07-30T05:05:16.467Z,30.70
2022-07-30T05:07:48.288Z,30.70
2022-07-30T05:10:19.772Z,30.80
2022-07-30T05:12:49.488Z,30.80
2022-07-30T05:15:19.282Z,30.80
2022-07-30T05:17:49.518Z,30.80
2022-07-30T05:20:19.291Z,30.90
2022-07-30T05:22:51.182Z,30.90
2022-07-30T05:25:21.272Z,31.00
2022-07-30T05:27:51.189Z,31.00
2022-07-30T05:30:21.043Z,31.10
2022-07-30T05:32:58.014Z,31.10
2022-07-30T05:35:31.091Z,31.10
2022-07-30T05:38:02.440Z,31.10
2022-07-30T05:40:32.401Z,31.20
2022-07-30T05:43:02.150Z,31.30
2022-07-30T05:45:32.692Z,31.30
2022-07-30T05:48:02.802Z,31.30
2022-07-30T05:50:32.636Z,31.30
2022-07-30T05:53:02.601Z,31.30
2022-07-30T05:55:32.962Z,31.40
2022-07-30T05:58:06.736Z,31.40
2022-07-30T06:00:37.381Z,31.40
2022-07-30T06:03:07.168Z,31.40
2022-07-30T06:05:36.902Z,31.50
2022-07-30T06:08:07.856Z,31.60
2022-07-30T06:10:38.527Z,31.60
2022-07-30T06:13:08.174Z,31.70
2022-07-30T06:15:38.108Z,31.70
2022-07-30T06:18:07.910Z,31.70
2022-07-30T06:20:37.772Z,31.80
2022-07-30T06:23:07.534Z,31.80
2022-07-30T06:25:37.527Z,31.80
2022-07-30T06:28:27.869Z,31.90
2022-07-30T06:30:59.643Z,32.00
2022-07-30T06:33:29.341Z,32.10
2022-07-30T06:35:59.441Z,32.10
2022-07-30T06:38:29.351Z,32.10
2022-07-30T06:41:02.889Z,32.10
2022-07-30T06:43:34.404Z,32.00
2022-07-30T06:46:04.495Z,32.00
2022-07-30T06:48:34.390Z,32.00
2022-07-30T06:51:04.149Z,32.10
2022-07-30T06:53:33.980Z,32.10
2022-07-30T06:56:12.101Z,32.10
2022-07-30T06:58:42.030Z,32.20
2022-07-30T07:01:12.067Z,32.20
2022-07-30T07:03:42.113Z,32.30
2022-07-30T07:06:11.947Z,32.20
2022-07-30T07:08:42.296Z,32.30
2022-07-30T07:11:12.955Z,32.30
2022-07-30T07:13:42.728Z,32.30
2022-07-30T07:16:13.491Z,32.30
2022-07-30T07:18:43.270Z,32.30
2022-07-30T07:21:12.986Z,32.40
2022-07-30T07:23:42.757Z,32.40
2022-07-30T07:26:14.102Z,32.50
2022-07-30T07:28:44.374Z,32.50
2022-07-30T07:32:05.201Z,32.50
2022-07-30T07:34:04.076Z,32.60
2022-07-30T07:36:33.942Z,32.50
2022-07-30T07:39:04.652Z,32.50
2022-07-30T07:41:48.491Z,32.50
2022-07-30T07:44:19.721Z,32.50
2022-07-30T07:46:50.030Z,32.50
2022-07-30T07:49:19.869Z,32.50
2022-07-30T07:51:49.830Z,32.50
2022-07-30T07:54:22.859Z,32.60
2022-07-30T07:56:54.486Z,32.60
2022-07-30T07:59:33.516Z,32.60
2022-07-30T08:02:10.872Z,32.50
2022-07-30T08:04:40.698Z,32.50
2022-07-30T08:07:10.542Z,32.50
2022-07-30T08:09:44.554Z,32.50
2022-07-30T08:12:16.511Z,32.40
2022-07-30T08:14:46.155Z,32.30
2022-07-30T08:17:15.862Z,32.30
2022-07-30T08:19:45.625Z,32.20
2022-07-30T08:22:15.446Z,32.10
2022-07-30T08:24:45.809Z,32.10
2022-07-30T08:27:15.757Z,31.90
2022-07-30T08:29:45.430Z,31.60
2022-07-30T08:32:15.224Z,31.20
2022-07-30T08:34:44.899Z,30.80
2022-07-30T08:37:14.931Z,30.40
2022-07-30T08:39:45.219Z,30.00
2022-07-30T08:42:16.779Z,29.70
2022-07-30T08:44:48.501Z,29.40
2022-07-30T08:47:20.806Z,29.20
2022-07-30T08:49:51.731Z,29.10
2022-07-30T08:52:22.157Z,29.00
2022-07-30T08:54:52.083Z,28.80
2022-07-30T08:57:22.092Z,28.70
2022-07-30T09:00:00.692Z,28.60
2022-07-30T09:02:34.519Z,28.50
2022-07-30T09:05:04.596Z,28.40
2022-07-30T09:07:36.000Z,28.30
2022-07-30T09:10:08.657Z,28.30
2022-07-30T09:12:47.151Z,28.20
2022-07-30T09:15:19.928Z,28.10
2022-07-30T09:17:59.450Z,28.10
2022-07-30T09:20:39.167Z,28.00
2022-07-30T09:23:09.391Z,28.00
2022-07-30T09:25:44.949Z,27.90
2022-07-30T09:28:16.900Z,27.90
2022-07-30T09:31:02.853Z,27.80
2022-07-30T09:33:42.798Z,27.80
2022-07-30T09:36:16.227Z,27.60
2022-07-30T09:38:54.701Z,27.60
2022-07-30T09:41:44.449Z,27.60
2022-07-30T09:44:25.422Z,27.50
2022-07-30T09:46:56.394Z,27.50
2022-07-30T09:49:29.651Z,27.50
2022-07-30T09:52:00.375Z,27.50
2022-07-30T09:54:52.922Z,27.50
2022-07-30T09:57:27.542Z,27.50
2022-07-30T09:59:59.906Z,27.60
2022-07-30T10:02:35.577Z,27.50
2022-07-30T10:05:19.180Z,27.40
2022-07-30T10:08:16.366Z,27.40
2022-07-30T10:10:50.676Z,27.40
2022-07-30T10:13:22.375Z,27.30
2022-07-30T10:15:52.628Z,27.30
2022-07-30T10:18:23.177Z,27.40
2022-07-30T10:20:53.362Z,27.40
2022-07-30T10:23:27.037Z,27.30
2022-07-30T10:25:59.477Z,27.30
2022-07-30T10:28:34.647Z,27.20
2022-07-30T10:31:47.434Z,27.20
2022-07-30T10:33:59.315Z,27.10
2022-07-30T10:36:30.342Z,27.10
2022-07-30T10:39:00.524Z,27.00
2022-07-30T10:41:57.164Z,26.90
2022-07-30T10:45:07.742Z,26.90
2022-07-30T10:47:44.806Z,26.90
2022-07-30T10:50:22.122Z,26.80
2022-07-30T10:52:58.918Z,26.80
2022-07-30T10:55:38.789Z,26.80
2022-07-30T10:58:22.859Z,26.90
2022-07-30T11:01:03.078Z,26.90
2022-07-30T11:03:41.144Z,26.80
2022-07-30T11:06:32.853Z,26.80
2022-07-30T11:09:24.479Z,26.80
2022-07-30T11:12:01.498Z,26.70
2022-07-30T11:15:06.874Z,26.70
2022-07-30T11:18:12.823Z,26.70
2022-07-30T11:20:48.840Z,26.70
2022-07-30T11:23:40.145Z,26.70
2022-07-30T11:26:14.272Z,26.60
2022-07-30T11:28:49.564Z,26.60
2022-07-30T11:31:55.632Z,26.50
2022-07-30T11:34:31.439Z,26.50
2022-07-30T11:37:29.679Z,26.50
2022-07-30T11:40:12.099Z,26.50
2022-07-30T11:42:43.566Z,26.50
2022-07-30T11:45:28.679Z,26.40
2022-07-30T11:48:02.069Z,26.40
2022-07-30T11:50:37.511Z,26.40
2022-07-30T11:53:10.899Z,26.30
2022-07-30T11:55:46.342Z,26.30
2022-07-30T11:58:41.743Z,26.30
2022-07-30T12:01:18.457Z,26.30
2022-07-30T12:03:49.478Z,26.30
2022-07-30T12:06:23.197Z,26.30
2022-07-30T12:08:58.685Z,26.30
2022-07-30T12:11:35.381Z,26.30
2022-07-30T12:14:07.659Z,26.30
2022-07-30T12:16:37.560Z,26.30
2022-07-30T12:19:09.511Z,26.30
2022-07-30T12:21:39.976Z,26.30
2022-07-30T12:24:11.556Z,26.20
2022-07-30T12:26:41.553Z,26.20
2022-07-30T12:29:15.441Z,26.20
2022-07-30T12:31:47.986Z,26.10
2022-07-30T12:34:26.554Z,26.10
2022-07-30T12:36:57.803Z,26.10
2022-07-30T12:39:29.707Z,26.10
2022-07-30T12:42:00.137Z,26.10
2022-07-30T12:44:46.269Z,26.10
2022-07-30T12:47:28.280Z,26.10
2022-07-30T12:50:03.866Z,26.10
2022-07-30T12:52:39.649Z,26.10
2022-07-30T12:55:15.151Z,26.10
2022-07-30T12:58:08.723Z,26.10
2022-07-30T13:00:54.804Z,26.10
2022-07-30T13:03:28.689Z,26.10
2022-07-30T13:05:59.798Z,26.10
2022-07-30T13:08:56.873Z,26.10
2022-07-30T13:11:48.445Z,26.10
2022-07-30T13:14:23.611Z,26.10
2022-07-30T13:17:01.035Z,26.20
2022-07-30T13:19:31.910Z,26.10
2022-07-30T13:22:02.000Z,26.10
2022-07-30T13:24:32.391Z,26.10
2022-07-30T13:27:03.174Z,26.00
2022-07-30T13:29:33.682Z,26.00
2022-07-30T13:32:04.138Z,26.00
2022-07-30T13:34:34.405Z,26.00
2022-07-30T13:37:05.101Z,25.90
2022-07-30T13:39:35.593Z,26.00
2022-07-30T13:42:05.786Z,25.90
2022-07-30T13:44:35.648Z,25.90
2022-07-30T13:47:06.169Z,25.90
2022-07-30T13:49:45.849Z,25.90
2022-07-30T13:52:15.674Z,25.90
2022-07-30T13:54:45.770Z,25.90
2022-07-30T13:57:15.885Z,25.90
2022-07-30T13:59:46.364Z,26.00
2022-07-30T14:02:16.860Z,26.00
2022-07-30T14:04:47.412Z,25.90
2022-07-30T14:07:19.289Z,26.00
2022-07-30T14:09:54.271Z,26.00
2022-07-30T14:12:25.243Z,25.90
2022-07-30T14:14:55.378Z,25.90
2022-07-30T14:17:26.179Z,25.90
2022-07-30T14:19:56.219Z,25.80
2022-07-30T14:22:26.361Z,25.80
2022-07-30T14:24:56.691Z,25.80
2022-07-30T14:27:26.725Z,25.70
2022-07-30T14:29:56.567Z,25.80
2022-07-30T14:32:29.773Z,25.70
2022-07-30T14:35:02.880Z,25.70
2022-07-30T14:37:33.795Z,25.70
2022-07-30T14:40:04.193Z,25.80
2022-07-30T14:42:34.312Z,25.70
2022-07-30T14:45:06.802Z,25.70
2022-07-30T14:47:37.145Z,25.70
2022-07-30T14:50:07.733Z,25.70
2022-07-30T14:52:40.545Z,25.70
2022-07-30T14:55:12.176Z,25.70
2022-07-30T14:57:42.618Z,25.70
2022-07-30T15:00:13.911Z,25.70
2022-07-30T15:02:44.440Z,25.70
2022-07-30T15:05:14.371Z,25.70
2022-07-30T15:07:44.812Z,25.70
2022-07-30T15:10:17.490Z,25.70
2022-07-30T15:12:47.832Z,25.60
2022-07-30T15:15:18.332Z,25.70
2022-07-30T15:17:50.653Z,25.60
2022-07-30T15:20:21.909Z,25.60
2022-07-30T15:22:51.874Z,25.70
2022-07-30T15:25:22.026Z,25.70
2022-07-30T15:27:53.943Z,25.70
2022-07-30T15:30:23.997Z,25.70
2022-07-30T15:32:56.144Z,25.70
2022-07-30T15:35:26.236Z,25.70
2022-07-30T15:37:56.387Z,25.70
2022-07-30T15:40:26.485Z,25.80
2022-07-30T15:42:56.475Z,25.80
2022-07-30T15:45:26.786Z,25.80
2022-07-30T15:47:56.687Z,25.80
2022-07-30T15:50:26.727Z,25.90
2022-07-30T15:52:58.924Z,25.90
2022-07-30T15:55:29.173Z,25.90
2022-07-30T15:57:59.171Z,25.90
2022-07-30T16:00:29.878Z,25.90
2022-07-30T16:03:01.992Z,25.90
2022-07-30T16:05:52.016Z,25.90
2022-07-30T16:08:24.213Z,25.90
2022-07-30T16:10:55.240Z,25.90
2022-07-30T16:13:25.516Z,25.90
2022-07-30T16:15:55.713Z,25.90
2022-07-30T16:18:25.875Z,25.90
2022-07-30T16:21:00.292Z,25.90
2022-07-30T16:23:36.281Z,25.90
2022-07-30T16:26:07.351Z,25.90
2022-07-30T16:28:37.490Z,25.90
2022-07-30T16:31:07.431Z,26.00
2022-07-30T16:33:37.521Z,26.00
2022-07-30T16:36:08.072Z,25.90
2022-07-30T16:38:38.462Z,26.00
2022-07-30T16:41:13.093Z,26.00
2022-07-30T16:43:43.887Z,26.00
2022-07-30T16:46:13.987Z,26.00
2022-07-30T16:48:44.530Z,26.00
2022-07-30T16:51:15.865Z,26.00
2022-07-30T16:53:46.020Z,26.10
2022-07-30T16:56:15.891Z,26.00
2022-07-30T16:58:46.492Z,26.10
2022-07-30T17:01:16.963Z,26.10
2022-07-30T17:03:47.380Z,26.00
2022-07-30T17:06:17.631Z,26.10
2022-07-30T17:08:48.669Z,26.10
2022-07-30T17:11:46.149Z,26.10
2022-07-30T17:14:10.077Z,26.10
2022-07-30T17:16:42.578Z,26.10
2022-07-30T17:19:12.971Z,26.10
2022-07-30T17:21:43.067Z,26.10
2022-07-30T17:24:13.589Z,26.10
2022-07-30T17:26:44.953Z,26.10
2022-07-30T17:29:16.821Z,26.10
2022-07-30T17:31:47.855Z,26.10
2022-07-30T17:34:22.274Z,26.10
2022-07-30T17:36:53.185Z,26.00
2022-07-30T17:40:24.767Z,26.10
2022-07-30T17:42:17.008Z,26.00
2022-07-30T17:44:47.037Z,26.00
2022-07-30T17:47:17.432Z,26.00
2022-07-30T17:49:47.409Z,26.00
2022-07-30T17:52:17.775Z,26.10
2022-07-30T17:54:48.275Z,26.10
2022-07-30T17:57:20.598Z,26.10
2022-07-30T17:59:50.645Z,26.00
2022-07-30T18:02:27.452Z,26.00
2022-07-30T18:04:59.383Z,26.00
2022-07-30T18:07:30.869Z,26.00
2022-07-30T18:10:02.043Z,26.00
2022-07-30T18:12:32.398Z,26.00
2022-07-30T18:15:03.330Z,26.00
2022-07-30T18:17:33.620Z,25.90
2022-07-30T18:20:03.616Z,26.00
2022-07-30T18:22:33.392Z,26.00
2022-07-30T18:25:03.662Z,26.00
2022-07-30T18:27:38.102Z,26.00
2022-07-30T18:30:08.757Z,25.90
2022-07-30T18:32:38.921Z,25.90
2022-07-30T18:35:14.044Z,25.90
2022-07-30T18:37:46.114Z,25.90
2022-07-30T18:40:23.486Z,25.90
2022-07-30T18:42:54.605Z,25.90
2022-07-30T18:45:25.135Z,25.90
2022-07-30T18:47:55.584Z,25.90
2022-07-30T18:50:26.748Z,25.90
2022-07-30T18:52:57.564Z,25.90
2022-07-30T18:55:27.671Z,25.90
2022-07-30T18:57:58.002Z,25.90
2022-07-30T19:00:31.140Z,25.90
2022-07-30T19:03:06.085Z,25.90
2022-07-30T19:05:36.085Z,25.90
2022-07-30T19:08:08.722Z,25.90
2022-07-30T19:10:41.759Z,25.90
2022-07-30T19:13:12.170Z,25.90
2022-07-30T19:15:42.686Z,25.90
2022-07-30T19:18:13.346Z,25.90
2022-07-30T19:20:43.685Z,25.90
2022-07-30T19:23:14.452Z,25.90
2022-07-30T19:25:44.374Z,25.90
2022-07-30T19:28:17.262Z,25.90
2022-07-30T19:30:47.586Z,25.90
2022-07-30T19:33:18.176Z,25.90
2022-07-30T19:35:49.163Z,25.90
2022-07-30T19:38:21.787Z,25.90
2022-07-30T19:40:52.386Z,25.90
2022-07-30T19:43:24.633Z,25.90
2022-07-30T19:45:58.557Z,25.90
2022-07-30T19:48:31.483Z,25.90
2022-07-30T19:51:03.201Z,25.90
2022-07-30T19:53:36.503Z,25.90
2022-07-30T19:56:08.219Z,25.90
2022-07-30T19:58:41.175Z,25.80
2022-07-30T20:01:14.607Z,25.90
2022-07-30T20:03:45.881Z,25.90
2022-07-30T20:06:19.095Z,25.90
2022-07-30T20:08:53.550Z,25.90
2022-07-30T20:11:36.295Z,25.90
2022-07-30T20:14:07.673Z,25.90
2022-07-30T20:16:38.113Z,25.90
2022-07-30T20:19:08.459Z,25.90
2022-07-30T20:21:57.613Z,25.90
2022-07-30T20:24:28.341Z,25.90
2022-07-30T20:26:59.437Z,25.90
2022-07-30T20:29:29.621Z,25.90
2022-07-30T20:32:01.281Z,25.90
2022-07-30T20:34:32.825Z,25.90
2022-07-30T20:37:14.981Z,25.90
2022-07-30T20:39:53.144Z,25.90
2022-07-30T20:42:25.275Z,25.80
2022-07-30T20:44:56.255Z,25.90
2022-07-30T20:47:34.672Z,25.90
2022-07-30T20:50:14.620Z,25.80
2022-07-30T20:52:46.963Z,25.90
2022-07-30T20:58:16.500Z,25.90
2022-07-30T21:03:39.311Z,25.90
2022-07-30T21:06:09.501Z,25.80
2022-07-30T21:08:42.256Z,25.80
2022-07-30T21:11:12.657Z,25.80
2022-07-30T21:13:43.303Z,25.80
2022-07-30T21:16:16.209Z,25.80
2022-07-30T21:18:49.291Z,25.90
2022-07-30T21:21:30.519Z,25.90
2022-07-30T21:24:11.494Z,25.80
2022-07-30T21:26:42.852Z,25.90
2022-07-30T21:29:13.683Z,25.80
2022-07-30T21:32:01.571Z,25.90
2022-07-30T21:34:40.110Z,25.90
2022-07-30T21:37:15.411Z,25.90
2022-07-30T21:39:46.239Z,25.90
2022-07-30T21:42:17.520Z,25.90
2022-07-30T21:44:56.373Z,25.80
2022-07-30T21:47:26.774Z,25.90
2022-07-30T21:49:57.003Z,25.90
2022-07-30T21:52:26.905Z,25.80
2022-07-30T21:54:56.965Z,25.90
2022-07-30T21:57:34.543Z,25.80
2022-07-30T22:00:10.782Z,25.80
2022-07-30T22:02:40.782Z,25.80
2022-07-30T22:05:24.647Z,25.80
2022-07-30T22:08:10.914Z,25.80
2022-07-30T22:10:41.873Z,25.80
2022-07-30T22:13:13.237Z,25.80
2022-07-30T22:15:44.762Z,25.80
2022-07-30T22:18:15.709Z,25.80
2022-07-30T22:20:46.152Z,25.80
2022-07-30T22:23:16.844Z,25.70
2022-07-30T22:25:48.396Z,25.80
2022-07-30T22:28:20.323Z,25.70
2022-07-30T22:30:51.157Z,25.80
2022-07-30T22:33:22.253Z,25.70
2022-07-30T22:35:52.405Z,25.70
2022-07-30T22:38:22.648Z,25.70
2022-07-30T22:40:52.881Z,25.70
2022-07-30T22:43:23.436Z,25.70
2022-07-30T22:46:03.341Z,25.70
2022-07-30T22:48:44.959Z,25.70
2022-07-30T22:51:15.377Z,25.70
2022-07-30T22:54:10.579Z,25.70
2022-07-30T22:56:39.404Z,25.70
2022-07-30T22:59:09.504Z,25.70
2022-07-30T23:01:43.545Z,25.70
2022-07-30T23:04:13.656Z,25.60
2022-07-30T23:06:45.065Z,25.60
2022-07-30T23:09:16.462Z,25.60
2022-07-30T23:11:46.499Z,25.60
2022-07-30T23:12:26.420Z,25.90
2022-07-30T23:12:26.632Z,25.80
2022-07-30T23:14:16.965Z,25.60
2022-07-30T23:16:50.103Z,25.60
2022-07-30T23:19:22.165Z,25.60
2022-07-30T23:21:53.183Z,25.60
2022-07-30T23:24:23.398Z,25.60
2022-07-30T23:26:53.538Z,25.60
2022-07-30T23:29:23.877Z,25.60
2022-07-30T23:31:54.002Z,25.60
2022-07-30T23:34:24.416Z,25.60
2022-07-30T23:36:54.890Z,25.60
2022-07-30T23:39:25.077Z,25.60
2022-07-30T23:41:55.411Z,25.60
2022-07-30T23:44:25.452Z,25.60
2022-07-30T23:46:55.345Z,25.60
2022-07-30T23:49:26.387Z,25.60
2022-07-30T23:51:56.480Z,25.60
2022-07-30T23:54:26.502Z,25.60
2022-07-30T23:56:57.996Z,25.60
2022-07-30T23:59:36.917Z,25.60
